Etusivu
METAR-TAF:

METAR-TAF

Lentoasemat :

Frankfort, Michigan, Yhdysvallat

Leveyspiiri: 44-37-30N, Pituuspiiri: 086-12-02W, korkeus merenpinnasta: 193 m

Tämänhetkinen sää

Tämä raportti tehtiin 16 minuuttia sitten, kello 10.56 UTC
Tuuli 11 kn luoteesta puuskistuen 16 kn:hen
Lämpötila -3°C
Kosteus 74%
Ilmanpaine 1013 hPa
Näkyvyys: 16.1 km
Hajanaisia pilviä 2500 ft:n korkeudessa
Hajanaisia pilviä 3000 ft:n korkeudessa
Pilvistä 4600 ft:n korkeudessa
heikkoa lumisadetta

METAR: KFKS 151056Z AUTO 32011G16KT 10SM -SN SCT025 SCT030 OVC046 M03/M07 A2990 RMK AO2 T10351075

Aika: 06:12 (11:12 UTC)


TAF: puuttuu

Säähavainnot ja -ennusteet yli 4000 lentoasemalta (METAR- ja TAF-raportit).

Käytössä olevat sääasemat on merkitty karttaan keltaisilla ja punaisilla pisteillä.

Aseta hiiri pisteen päälle nähdäksesi sääaseman nimen.

Klikkaa sitten nähdäksesi säähavainnot ja -ennusteet.

Kartan vaihtaminen: klikkaa mustalla rastilla varustettuja vihreitä pisteitä, niin voit zoomata sisään; viivalla varustettua vihreää pistettä, niin voit zoomata ulos tai vihreitä nuolia, niin pääset viereisille kartoille.


METAR-TAF: